Terminal Aerodrome Forecast
Issued by NWS

Home | Current Version | Previous Version | Text Only | Print | Product List | Glossary On
Versions: 1 2 3 4 5 6 7 8 9 10 11 12 13 14 15
000
FTUS45 KRIW 211400 AAA
TAFRKS
TAF AMD
KRKS 211444Z 2115/2212 VRB06KT P6SM VCSH SCT035 BKN060
     FM211900 26018G28KT P6SM -SHRA SCT030 BKN050
     FM220100 28011G19KT P6SM SCT070 BKN120
     FM220400 25007KT P6SM SCT100=

USA.gov is the U.S. government's official web portal to all federal, state and local government web resources and services.